Terminal Aerodrome Forecast
Issued by NWS

Home | Current Version | Previous Version | Graphics & Text | Print | Product List | Glossary Off
Versions: 1 2 3 4 5 6 7 8 9 10 11 12 13

000
FTUS43 KDDC 222320
TAFHYS
TAF
KHYS 222320Z 2300/2324 02008KT P6SM SCT080
     FM231600 20011KT P6SM SKC
     FM231900 19017G25KT P6SM SKC=

USA.gov is the U.S. government's official web portal to all federal, state and local government web resources and services.